Time;durP1;ratioP1;P1;durP2;ratioP2;P2;SDS_P1;SDS_P2;PMS_P1;PMS_P2;Temp;Humidity;BMP_temperature;BMP_pressure;BME280_temperature;BME280_humidity;BME280_pressure;Samples;Min_cycle;Max_cycle;Signal;HPM_P1;HPM_P2
2022/04/01 00:01:08;;;;;;;5.93;5.32;;;18.30;44.40;;;;;;6154501;23;20199;-68
2022/04/01 00:06:41;;;;;;;5.95;4.93;;;18.20;44.30;;;;;;6156377;23;20167;-71
2022/04/01 00:09:08;;;;;;;6.28;5.60;;;18.20;44.40;;;;;;6129165;23;20559;-71
2022/04/01 00:11:35;;;;;;;5.50;5.00;;;18.20;44.30;;;;;;6189097;22;20195;-70
2022/04/01 00:14:05;;;;;;;5.70;5.20;;;18.20;44.40;;;;;;6220388;22;20242;-82
2022/04/01 00:16:33;;;;;;;6.03;5.43;;;18.20;44.40;;;;;;6214974;22;20211;-65
2022/04/01 00:21:35;;;;;;;5.40;4.90;;;18.10;44.30;;;;;;6266345;22;20217;-67
2022/04/01 00:24:02;;;;;;;5.65;5.15;;;18.20;44.40;;;;;;6238150;22;20205;-63
2022/04/01 00:29:16;;;;;;;5.45;4.95;;;18.10;44.30;;;;;;6197460;22;20269;-53
2022/04/01 00:31:43;;;;;;;5.32;4.82;;;18.10;44.30;;;;;;6185462;23;20187;-53
2022/04/01 00:34:17;;;;;;;5.90;5.30;;;18.10;44.30;;;;;;6183639;23;20215;-53
2022/04/01 00:36:45;;;;;;;5.55;4.90;;;18.10;44.30;;;;;;6183542;23;20605;-53
2022/04/01 00:39:29;;;;;;;5.10;4.60;;;18.10;44.30;;;;;;6185401;23;20169;-53
2022/04/01 00:41:58;;;;;;;5.28;4.72;;;18.10;44.30;;;;;;6209299;22;20284;-62
2022/04/01 00:44:28;;;;;;;5.55;4.95;;;18.10;44.30;;;;;;6247411;22;20191;-70
2022/04/01 00:46:56;;;;;;;5.00;4.57;;;18.10;44.30;;;;;;6219217;23;20213;-71
2022/04/01 00:49:24;;;;;;;5.40;4.90;;;18.10;44.30;;;;;;6219167;23;20645;-71
2022/04/01 00:51:52;;;;;;;5.18;4.68;;;18.00;44.20;;;;;;6246021;23;20603;-71
2022/04/01 00:54:20;;;;;;;5.30;4.53;;;18.10;44.30;;;;;;6215302;23;20178;-72
2022/04/01 00:56:47;;;;;;;5.50;5.00;;;18.00;44.20;;;;;;6215628;23;20722;-71
2022/04/01 00:59:14;;;;;;;5.18;4.68;;;18.00;44.20;;;;;;6189184;23;20175;-71
2022/04/01 01:01:44;;;;;;;5.13;4.63;;;18.00;44.20;;;;;;6214632;23;20199;-71
2022/04/01 01:04:13;;;;;;;4.70;4.30;;;17.90;44.10;;;;;;6189684;23;20177;-72
2022/04/01 01:06:42;;;;;;;5.57;4.88;;;18.00;44.20;;;;;;6189433;23;20163;-71
2022/04/01 01:09:09;;;;;;;5.18;4.70;;;18.00;44.20;;;;;;6189943;23;20172;-71
2022/04/01 01:11:36;;;;;;;4.50;4.10;;;18.00;44.20;;;;;;6190081;23;20172;-71
2022/04/01 01:14:04;;;;;;;4.78;4.25;;;17.90;44.10;;;;;;6189369;23;20175;-72
2022/04/01 01:16:31;;;;;;;5.20;4.70;;;17.90;44.10;;;;;;6190041;23;20645;-71
2022/04/01 01:19:04;;;;;;;5.20;4.70;;;17.90;44.10;;;;;;6216455;23;20160;-71
2022/04/01 01:21:32;;;;;;;4.70;4.30;;;17.90;44.30;;;;;;6191957;23;20622;-71
2022/04/01 01:24:03;;;;;;;4.88;4.47;;;17.90;44.10;;;;;;6190881;23;20183;-71
2022/04/01 01:26:31;;;;;;;4.40;4.00;;;17.90;44.20;;;;;;6191090;23;20179;-71
2022/04/01 01:28:58;;;;;;;5.03;4.55;;;17.90;44.20;;;;;;6190916;23;20190;-71
2022/04/01 01:31:26;;;;;;;4.65;4.25;;;17.90;44.20;;;;;;6190577;23;20627;-71
2022/04/01 01:33:53;;;;;;;4.40;4.00;;;17.90;44.30;;;;;;6217695;23;20247;-71
2022/04/01 01:36:21;;;;;;;4.55;4.15;;;17.90;44.20;;;;;;6191173;23;20195;-71
2022/04/01 01:38:48;;;;;;;4.18;3.80;;;17.90;44.30;;;;;;6190792;23;20242;-71
2022/04/01 01:41:15;;;;;;;4.78;4.25;;;17.90;44.30;;;;;;6190854;23;20171;-71
2022/04/01 01:43:44;;;;;;;4.28;3.97;;;17.80;44.10;;;;;;6191797;23;20626;-71
2022/04/01 01:46:11;;;;;;;4.32;3.95;;;17.80;44.10;;;;;;6186047;23;20231;-72
2022/04/01 01:48:38;;;;;;;4.47;4.07;;;17.80;44.10;;;;;;6185953;23;20172;-71
2022/04/01 01:56:47;;;;;;;5.00;4.50;;;17.80;44.00;;;;;;6155069;23;20569;-71
2022/04/01 01:59:17;;;;;;;4.43;4.10;;;17.80;44.10;;;;;;6197476;23;20675;-71
2022/04/01 02:01:45;;;;;;;4.43;4.03;;;17.80;44.00;;;;;;6185593;23;20168;-71
2022/04/01 02:04:12;;;;;;;4.22;3.83;;;17.80;44.00;;;;;;6185608;23;20172;-71
2022/04/01 02:06:39;;;;;;;4.22;3.90;;;17.80;44.10;;;;;;6185646;23;20182;-71
2022/04/01 02:09:06;;;;;;;4.32;3.97;;;17.80;44.10;;;;;;6185632;23;20180;-71
2022/04/01 02:11:34;;;;;;;4.38;4.05;;;17.80;44.00;;;;;;6185983;23;20601;-71
2022/04/01 02:14:01;;;;;;;3.70;3.40;;;17.80;44.10;;;;;;6185682;23;20172;-72
2022/04/01 02:16:30;;;;;;;4.80;4.28;;;17.80;44.00;;;;;;6186809;23;20172;-71
2022/04/01 02:18:57;;;;;;;4.32;3.92;;;17.70;43.90;;;;;;6210314;23;20585;-71
2022/04/01 02:21:24;;;;;;;4.43;4.03;;;17.80;44.00;;;;;;6210782;23;20276;-71
2022/04/01 02:23:51;;;;;;;4.18;3.80;;;17.70;43.90;;;;;;6185163;23;20622;-71
2022/04/01 02:26:22;;;;;;;4.88;3.97;;;17.70;43.90;;;;;;6185549;23;20652;-71
2022/04/01 02:28:50;;;;;;;4.03;3.63;;;17.70;43.90;;;;;;6185283;23;20219;-71
2022/04/01 02:31:19;;;;;;;3.97;3.67;;;17.70;44.50;;;;;;6185073;23;20176;-71
2022/04/01 02:34:06;;;;;;;4.28;3.88;;;17.70;44.10;;;;;;6204905;22;20208;-71
2022/04/01 02:36:34;;;;;;;4.22;3.83;;;17.70;44.70;;;;;;6190369;23;20171;-70
2022/04/01 02:39:01;;;;;;;3.42;3.15;;;17.70;44.20;;;;;;6190258;23;20196;-71
2022/04/01 02:41:30;;;;;;;4.00;3.70;;;17.70;44.10;;;;;;6190429;23;20198;-71
2022/04/01 02:44:08;;;;;;;4.18;3.78;;;17.70;44.20;;;;;;6190390;23;20576;-71
2022/04/01 02:46:37;;;;;;;4.05;3.75;;;17.70;44.30;;;;;;6190764;23;20567;-71
2022/04/01 02:49:07;;;;;;;3.88;3.58;;;17.60;44.20;;;;;;6190287;23;20167;-71
2022/04/01 02:51:38;;;;;;;4.00;3.70;;;17.60;44.20;;;;;;6190812;23;20175;-71
2022/04/01 02:54:16;;;;;;;3.90;3.60;;;17.60;44.20;;;;;;6190406;23;20253;-71
2022/04/01 02:56:44;;;;;;;4.00;3.70;;;17.60;44.10;;;;;;6190443;23;20202;-71
2022/04/01 02:59:12;;;;;;;3.97;3.67;;;17.60;44.20;;;;;;6190683;23;20242;-71
2022/04/01 03:01:40;;;;;;;3.83;3.53;;;17.60;44.10;;;;;;6191002;23;20171;-71
2022/04/01 03:04:09;;;;;;;3.95;3.65;;;17.60;44.20;;;;;;6191116;23;20202;-71
2022/04/01 03:06:44;;;;;;;4.05;3.75;;;17.60;44.20;;;;;;6191079;23;20171;-72
2022/04/01 03:09:11;;;;;;;4.05;3.65;;;17.60;44.20;;;;;;6190372;23;20172;-71
2022/04/01 03:11:42;;;;;;;3.90;3.60;;;17.60;44.10;;;;;;6191015;23;20178;-72
2022/04/01 03:14:22;;;;;;;4.00;3.60;;;17.60;44.30;;;;;;6190247;23;20174;-71
2022/04/01 03:17:10;;;;;;;3.65;3.35;;;17.50;44.00;;;;;;6195425;23;20172;-71
2022/04/01 03:19:39;;;;;;;3.85;3.55;;;17.50;44.00;;;;;;6190063;23;20175;-71
2022/04/01 03:22:06;;;;;;;3.88;3.58;;;17.50;43.80;;;;;;6190119;23;20187;-71
2022/04/01 03:24:35;;;;;;;4.10;3.80;;;17.50;43.80;;;;;;6189621;23;20191;-71
2022/04/01 03:27:02;;;;;;;3.40;3.17;;;17.50;44.40;;;;;;6189950;23;20186;-71
2022/04/01 03:29:31;;;;;;;4.40;4.00;;;17.50;43.80;;;;;;6189674;23;20202;-71
2022/04/01 03:31:58;;;;;;;3.70;3.42;;;17.50;43.80;;;;;;6190011;23;20171;-71
2022/04/01 03:34:26;;;;;;;3.50;3.30;;;17.50;43.60;;;;;;6189562;23;20279;-71
2022/04/01 03:36:56;;;;;;;3.67;3.38;;;17.50;43.70;;;;;;6189796;23;20176;-71
2022/04/01 03:39:24;;;;;;;3.80;3.50;;;17.60;43.80;;;;;;6189445;23;20543;-71
2022/04/01 03:41:56;;;;;;;3.60;3.30;;;17.60;43.70;;;;;;6216277;23;20293;-71
2022/04/01 03:44:24;;;;;;;3.85;3.55;;;17.60;43.70;;;;;;6189399;23;20286;-71
2022/04/01 03:47:05;;;;;;;3.97;3.67;;;17.70;43.70;;;;;;6190006;23;20171;-70
2022/04/01 03:49:34;;;;;;;4.05;3.75;;;17.60;43.60;;;;;;6189879;23;20203;-70
2022/04/01 03:52:02;;;;;;;3.80;3.50;;;17.60;43.40;;;;;;6190121;23;20521;-71
2022/04/01 03:54:31;;;;;;;3.72;3.42;;;17.60;43.60;;;;;;6191534;23;20569;-71
2022/04/01 03:57:05;;;;;;;3.50;3.30;;;17.70;43.50;;;;;;6217157;23;20216;-71
2022/04/01 03:59:44;;;;;;;3.80;3.50;;;17.60;43.40;;;;;;6216394;23;20163;-70
2022/04/01 04:02:31;;;;;;;3.72;3.42;;;17.70;43.50;;;;;;6216582;23;20237;-71
2022/04/01 04:04:59;;;;;;;3.92;3.53;;;17.60;43.50;;;;;;6189631;23;20591;-72
2022/04/01 04:07:28;;;;;;;3.72;3.42;;;17.60;43.50;;;;;;6189524;23;20181;-71
2022/04/01 04:09:55;;;;;;;3.67;3.38;;;17.60;44.10;;;;;;6189429;23;20171;-71
2022/04/01 04:12:24;;;;;;;3.47;3.20;;;17.60;43.50;;;;;;6189777;23;20171;-70
2022/04/01 04:15:01;;;;;;;3.30;3.00;;;17.60;43.40;;;;;;6190219;23;20254;-70
2022/04/01 04:17:35;;;;;;;3.42;3.13;;;17.60;43.40;;;;;;6189438;23;20171;-70
2022/04/01 04:20:11;;;;;;;3.17;2.97;;;17.60;43.50;;;;;;6190202;23;20232;-70
2022/04/01 04:22:52;;;;;;;3.50;3.20;;;17.60;43.40;;;;;;6190371;23;20197;-71
2022/04/01 04:25:23;;;;;;;3.35;3.15;;;17.70;44.10;;;;;;6189471;23;20253;-70
2022/04/01 04:27:57;;;;;;;3.20;3.00;;;17.70;43.40;;;;;;6189966;23;20214;-71
2022/04/01 04:30:29;;;;;;;3.80;3.50;;;17.70;43.30;;;;;;6190727;23;20244;-71
2022/04/01 04:33:17;;;;;;;3.05;2.85;;;17.70;43.30;;;;;;6216692;23;20175;-71
2022/04/01 04:35:45;;;;;;;3.22;3.03;;;17.70;43.40;;;;;;6190018;23;20210;-71
2022/04/01 04:38:13;;;;;;;3.45;3.15;;;17.70;43.40;;;;;;6190463;23;20191;-72
2022/04/01 04:40:43;;;;;;;2.88;2.67;;;17.70;43.30;;;;;;6191091;23;20628;-72
2022/04/01 04:43:14;;;;;;;3.20;3.00;;;17.70;43.40;;;;;;6197935;22;20248;-69
2022/04/01 04:45:41;;;;;;;3.40;3.10;;;17.70;43.50;;;;;;6207291;22;20206;-69
2022/04/01 04:48:10;;;;;;;2.88;2.67;;;17.80;43.50;;;;;;6222175;23;20171;-69
2022/04/01 04:50:38;;;;;;;3.20;3.00;;;17.80;43.50;;;;;;6220379;23;20564;-69
2022/04/01 04:53:05;;;;;;;3.40;3.10;;;17.80;43.60;;;;;;6220164;23;20170;-69
2022/04/01 04:58:14;;;;;;;3.17;2.97;;;17.80;43.40;;;;;;6159275;23;20666;-69
2022/04/01 05:00:55;;;;;;;4.32;3.08;;;17.80;43.40;;;;;;6133404;23;20165;-68
2022/04/01 05:03:40;;;;;;;3.40;2.88;;;17.90;43.60;;;;;;6135694;23;20160;-69
2022/04/01 05:06:08;;;;;;;2.65;2.45;;;17.90;43.40;;;;;;6133370;23;20272;-69
2022/04/01 05:08:44;;;;;;;2.92;2.72;;;17.90;43.30;;;;;;6159535;23;20173;-69
2022/04/01 05:11:32;;;;;;;2.75;2.55;;;17.90;43.20;;;;;;6132864;23;20196;-68
2022/04/01 05:14:04;;;;;;;2.97;2.78;;;18.00;43.20;;;;;;6134906;23;20165;-69
2022/04/01 05:16:33;;;;;;;2.70;2.50;;;18.00;43.20;;;;;;6133197;23;20220;-69
2022/04/01 05:19:04;;;;;;;2.80;2.60;;;18.00;43.10;;;;;;6133695;23;20204;-69
2022/04/01 05:21:41;;;;;;;2.78;2.33;;;18.00;43.10;;;;;;6134595;23;20165;-69
2022/04/01 05:24:09;;;;;;;2.72;2.53;;;18.10;43.40;;;;;;6132634;23;20177;-70
2022/04/01 05:26:41;;;;;;;2.60;2.40;;;18.00;43.20;;;;;;6132310;23;20529;-69
2022/04/01 05:29:14;;;;;;;2.63;2.42;;;18.00;43.90;;;;;;6158421;23;20157;-69
2022/04/01 05:31:44;;;;;;;2.72;2.20;;;18.00;43.30;;;;;;6132314;23;20173;-69
2022/04/01 05:34:17;;;;;;;2.30;2.20;;;18.10;43.40;;;;;;6158384;23;20244;-70
2022/04/01 05:36:45;;;;;;;2.40;2.20;;;18.00;43.00;;;;;;6132927;23;20200;-70
2022/04/01 05:39:13;;;;;;;2.60;2.15;;;18.00;42.90;;;;;;6132003;23;20512;-69
2022/04/01 05:41:45;;;;;;;2.50;2.30;;;18.00;42.80;;;;;;6132880;23;20173;-69
2022/04/01 05:44:13;;;;;;;2.22;2.08;;;18.10;42.80;;;;;;6132118;23;20177;-70
2022/04/01 05:46:42;;;;;;;2.50;2.30;;;18.00;42.80;;;;;;6135633;23;20203;-72
2022/04/01 05:49:13;;;;;;;2.20;2.10;;;18.10;42.80;;;;;;6194291;22;20564;-50
2022/04/01 05:51:40;;;;;;;2.35;2.15;;;18.00;42.60;;;;;;6220316;23;20195;-50
2022/04/01 05:54:08;;;;;;;2.10;2.00;;;18.00;42.70;;;;;;6241226;23;20190;-51
2022/04/01 05:56:37;;;;;;;2.42;2.17;;;18.10;42.70;;;;;;6190199;23;20175;-51
2022/04/01 05:59:04;;;;;;;2.80;2.30;;;18.10;42.60;;;;;;6190026;23;20568;-50
2022/04/01 06:01:41;;;;;;;3.17;2.30;;;18.10;42.50;;;;;;6189999;23;20255;-50
2022/04/01 06:04:20;;;;;;;2.50;2.30;;;18.10;42.50;;;;;;6190023;23;20273;-50
2022/04/01 06:06:48;;;;;;;2.20;2.05;;;18.00;42.50;;;;;;6189950;23;20512;-50
2022/04/01 06:09:31;;;;;;;2.50;2.30;;;18.10;42.50;;;;;;6190337;23;20173;-50
2022/04/01 06:12:30;;;;;;;2.38;2.17;;;18.00;42.50;;;;;;6216558;23;20171;-50
2022/04/01 06:15:19;;;;;;;2.00;1.90;;;18.10;42.50;;;;;;6216491;23;20269;-54
2022/04/01 06:18:14;;;;;;;2.30;2.00;;;18.10;42.60;;;;;;6216854;23;20167;-50
2022/04/01 06:20:42;;;;;;;2.45;2.25;;;18.10;42.50;;;;;;6216903;23;20155;-50
2022/04/01 06:23:14;;;;;;;2.47;2.28;;;18.10;42.40;;;;;;6216768;23;20194;-51
2022/04/01 06:25:45;;;;;;;2.45;2.25;;;18.10;42.90;;;;;;6189747;23;20195;-51
2022/04/01 06:28:16;;;;;;;2.30;2.20;;;18.10;42.40;;;;;;6217055;23;20522;-50
2022/04/01 06:30:44;;;;;;;2.55;2.35;;;18.10;42.30;;;;;;6190558;23;20242;-51
2022/04/01 06:33:19;;;;;;;2.35;2.10;;;18.10;42.30;;;;;;6189701;23;20549;-50
2022/04/01 06:36:19;;;;;;;2.33;2.22;;;18.10;42.30;;;;;;6135633;23;20201;-50
2022/04/01 06:38:50;;;;;;;2.10;2.00;;;18.10;42.20;;;;;;6189755;23;20187;-50
2022/04/01 06:41:19;;;;;;;2.30;2.10;;;18.10;42.10;;;;;;6216343;23;20156;-50
2022/04/01 06:43:53;;;;;;;2.28;2.08;;;18.10;42.20;;;;;;6190033;23;20167;-51
2022/04/01 06:46:44;;;;;;;2.63;2.42;;;18.10;42.20;;;;;;6173482;23;20172;-50
2022/04/01 06:49:15;;;;;;;3.42;3.13;;;18.10;42.20;;;;;;6216023;23;20190;-51
2022/04/01 06:52:03;;;;;;;2.75;2.55;;;18.10;42.20;;;;;;6216230;23;20501;-51
2022/04/01 06:54:54;;;;;;;2.03;1.92;;;18.10;42.10;;;;;;6217143;23;20278;-52
2022/04/01 06:57:54;;;;;;;2.15;1.98;;;18.10;42.20;;;;;;6149777;23;20171;-50
2022/04/01 07:00:40;;;;;;;2.00;1.90;;;18.10;42.00;;;;;;6189499;23;20174;-50
2022/04/01 07:03:07;;;;;;;2.33;2.22;;;18.10;42.00;;;;;;6189566;23;20202;-50
2022/04/01 07:05:36;;;;;;;2.47;2.28;;;18.10;42.00;;;;;;6216255;23;20214;-50
2022/04/01 07:08:04;;;;;;;2.03;1.92;;;18.10;42.00;;;;;;6189373;23;20618;-50
2022/04/01 07:10:55;;;;;;;2.00;1.90;;;18.10;41.90;;;;;;6216088;23;20162;-50
2022/04/01 07:13:22;;;;;;;2.08;1.98;;;18.10;41.80;;;;;;6216143;23;20163;-50
2022/04/01 07:15:50;;;;;;;2.28;2.15;;;18.10;41.80;;;;;;6215797;23;20197;-50
2022/04/01 07:18:18;;;;;;;2.67;2.47;;;18.10;41.80;;;;;;6189816;23;20181;-51
2022/04/01 07:20:47;;;;;;;2.70;2.50;;;18.20;41.90;;;;;;6215878;23;20174;-51
2022/04/01 07:23:14;;;;;;;3.17;2.88;;;18.20;41.80;;;;;;6216192;23;20167;-51
2022/04/01 07:25:42;;;;;;;2.97;2.78;;;18.20;41.80;;;;;;6215817;23;20188;-51
2022/04/01 07:28:10;;;;;;;3.22;2.92;;;18.20;41.80;;;;;;6216499;23;20218;-50
2022/04/01 07:30:37;;;;;;;3.13;2.92;;;18.20;41.60;;;;;;6216043;23;20606;-52
2022/04/01 07:33:04;;;;;;;2.72;2.53;;;18.20;41.60;;;;;;6189464;23;20172;-51
2022/04/01 07:35:34;;;;;;;2.88;2.67;;;18.20;41.60;;;;;;6215921;23;20269;-51
2022/04/01 07:38:03;;;;;;;2.88;2.67;;;18.20;41.70;;;;;;6189236;23;20172;-50
2022/04/01 07:40:30;;;;;;;2.90;2.70;;;18.20;41.50;;;;;;6215698;23;20712;-52
2022/04/01 07:42:58;;;;;;;2.88;2.67;;;18.20;41.40;;;;;;6215662;23;20540;-51
2022/04/01 07:45:25;;;;;;;3.05;2.80;;;18.20;41.40;;;;;;6215598;23;20218;-50
2022/04/01 07:47:52;;;;;;;3.10;2.90;;;18.20;41.40;;;;;;6215430;23;20168;-51
2022/04/01 07:50:20;;;;;;;2.70;2.50;;;18.20;41.50;;;;;;6188853;23;20230;-50
2022/04/01 07:52:47;;;;;;;3.20;2.95;;;18.20;41.50;;;;;;6188929;23;20225;-50
2022/04/01 07:55:17;;;;;;;3.08;2.88;;;18.20;41.50;;;;;;6215529;23;20214;-50
2022/04/01 07:57:44;;;;;;;3.20;3.00;;;18.20;41.40;;;;;;6189012;23;20226;-51
2022/04/01 08:00:12;;;;;;;3.10;2.90;;;18.20;41.40;;;;;;6215531;23;20190;-50
2022/04/01 08:02:43;;;;;;;2.90;2.70;;;18.20;41.40;;;;;;6215950;23;20261;-50
2022/04/01 08:05:10;;;;;;;2.90;2.70;;;18.20;41.40;;;;;;6215424;23;20187;-50
2022/04/01 08:07:37;;;;;;;3.10;2.90;;;18.20;41.40;;;;;;6215892;23;20495;-50
2022/04/01 08:10:05;;;;;;;2.70;2.50;;;18.20;41.20;;;;;;6215855;23;20205;-52
2022/04/01 08:12:35;;;;;;;2.90;2.70;;;18.20;41.40;;;;;;6215905;23;20174;-52
2022/04/01 08:15:02;;;;;;;2.90;2.70;;;18.20;41.30;;;;;;6188762;23;20202;-52
2022/04/01 08:17:29;;;;;;;2.92;2.72;;;18.30;41.30;;;;;;6215610;23;20177;-51
2022/04/01 08:19:57;;;;;;;3.13;2.58;;;18.20;41.30;;;;;;6188797;23;20183;-52
2022/04/01 08:22:24;;;;;;;2.90;2.70;;;18.20;41.30;;;;;;6215789;23;20218;-51
2022/04/01 08:24:51;;;;;;;2.60;2.50;;;18.20;41.20;;;;;;6188841;23;20720;-51
2022/04/01 08:27:18;;;;;;;2.85;2.65;;;18.20;41.20;;;;;;6215493;23;20222;-53
2022/04/01 08:29:46;;;;;;;2.80;2.60;;;18.20;41.20;;;;;;6189109;23;20167;-51
2022/04/01 08:32:14;;;;;;;3.00;2.80;;;18.20;41.10;;;;;;6217569;23;20172;-52
2022/04/01 08:34:41;;;;;;;2.80;2.60;;;18.30;41.30;;;;;;6217449;23;20194;-52
2022/04/01 08:37:08;;;;;;;3.00;2.80;;;18.20;41.20;;;;;;6190948;23;20171;-51
2022/04/01 08:39:35;;;;;;;2.90;2.70;;;18.20;41.10;;;;;;6190777;23;20277;-52
2022/04/01 08:42:03;;;;;;;2.50;2.35;;;18.20;41.20;;;;;;6190744;23;20198;-52
2022/04/01 08:44:30;;;;;;;2.70;2.50;;;18.20;41.20;;;;;;6217367;23;20199;-52
2022/04/01 08:46:59;;;;;;;2.78;2.58;;;18.20;41.10;;;;;;6190818;23;20179;-51
2022/04/01 08:49:27;;;;;;;2.78;2.58;;;18.20;41.10;;;;;;6217724;23;20172;-52
2022/04/01 08:51:54;;;;;;;2.67;2.47;;;18.30;41.10;;;;;;6217343;23;20618;-52
2022/04/01 08:54:21;;;;;;;2.53;2.42;;;18.30;41.10;;;;;;6217180;23;20187;-52
2022/04/01 08:56:48;;;;;;;2.80;2.60;;;18.30;41.80;;;;;;6190727;23;20170;-52
2022/04/01 08:59:15;;;;;;;2.70;2.50;;;18.30;41.10;;;;;;6217659;23;20219;-51
2022/04/01 09:01:43;;;;;;;2.80;2.60;;;18.30;41.00;;;;;;6190732;23;20172;-52
2022/04/01 09:04:21;;;;;;;2.60;2.40;;;18.30;41.10;;;;;;6190593;23;20191;-53
2022/04/01 09:06:49;;;;;;;2.90;2.70;;;18.30;41.10;;;;;;6218146;23;20151;-52
2022/04/01 09:09:31;;;;;;;2.72;2.53;;;18.30;41.10;;;;;;6193113;23;20183;-55
2022/04/01 09:12:08;;;;;;;2.60;2.40;;;18.30;40.90;;;;;;6219839;23;20579;-49
2022/04/01 09:14:35;;;;;;;2.20;2.10;;;18.30;41.10;;;;;;6192886;23;20195;-51
2022/04/01 09:17:03;;;;;;;2.15;2.05;;;18.30;41.00;;;;;;6192278;23;20696;-54
2022/04/01 09:19:32;;;;;;;2.13;2.03;;;18.30;40.80;;;;;;6219556;23;20186;-54
2022/04/01 09:21:59;;;;;;;2.10;2.00;;;18.30;40.90;;;;;;6219555;23;20494;-55
2022/04/01 09:24:27;;;;;;;2.20;2.10;;;18.30;40.80;;;;;;6219360;23;20218;-52
2022/04/01 09:26:57;;;;;;;2.00;1.90;;;18.30;40.50;;;;;;6217125;23;20171;-51
2022/04/01 09:29:25;;;;;;;1.92;1.83;;;18.30;40.60;;;;;;6200663;23;20152;-54
2022/04/01 09:31:53;;;;;;;1.80;1.70;;;18.30;40.50;;;;;;6208488;23;20499;-54
2022/04/01 09:34:20;;;;;;;2.10;2.00;;;18.40;40.80;;;;;;6191057;23;20223;-54
2022/04/01 09:36:49;;;;;;;2.17;1.90;;;18.40;40.70;;;;;;6190717;23;20181;-54
2022/04/01 09:39:17;;;;;;;2.15;2.05;;;18.40;41.40;;;;;;6217634;23;20173;-54
2022/04/01 09:41:46;;;;;;;1.90;1.80;;;18.30;40.70;;;;;;6194481;23;20172;-54
2022/04/01 09:44:15;;;;;;;2.00;1.90;;;18.40;40.70;;;;;;6195659;23;20191;-54
2022/04/01 09:46:44;;;;;;;2.25;2.15;;;18.40;40.70;;;;;;6190726;23;20175;-54
2022/04/01 09:49:12;;;;;;;2.22;2.13;;;18.40;40.70;;;;;;6190410;23;20183;-54
2022/04/01 09:51:43;;;;;;;2.15;2.05;;;18.40;40.70;;;;;;6217242;23;20245;-54
2022/04/01 09:54:11;;;;;;;2.20;2.10;;;18.40;40.60;;;;;;6190696;23;20203;-54
2022/04/01 09:56:40;;;;;;;2.15;2.05;;;18.40;40.70;;;;;;6190703;23;20222;-54
2022/04/01 09:59:08;;;;;;;2.10;2.00;;;18.40;40.50;;;;;;6217956;23;20164;-54
2022/04/01 10:02:00;;;;;;;2.10;2.00;;;18.40;40.70;;;;;;6217269;23;20166;-54
2022/04/01 10:04:28;;;;;;;2.03;1.92;;;18.40;40.60;;;;;;6217118;23;20257;-54
2022/04/01 10:06:54;;;;;;;2.00;1.90;;;18.40;40.60;;;;;;6190309;23;20595;-54
2022/04/01 10:09:23;;;;;;;1.90;1.80;;;18.40;40.70;;;;;;6217264;23;20164;-54
2022/04/01 10:11:50;;;;;;;2.13;2.03;;;18.40;40.40;;;;;;6216805;23;20175;-54
2022/04/01 10:14:19;;;;;;;1.98;1.88;;;18.40;40.50;;;;;;6190013;23;20691;-54
2022/04/01 10:16:48;;;;;;;1.88;1.77;;;18.40;40.50;;;;;;6217078;23;20482;-54
2022/04/01 10:19:18;;;;;;;1.80;1.70;;;18.50;40.60;;;;;;6216663;23;20638;-54
2022/04/01 10:21:46;;;;;;;1.80;1.70;;;18.40;40.50;;;;;;6190402;23;20171;-54
2022/04/01 10:24:25;;;;;;;1.80;1.70;;;18.40;40.50;;;;;;6216544;23;20704;-54
2022/04/01 10:27:07;;;;;;;1.70;1.60;;;18.40;40.40;;;;;;6190002;23;20163;-54
2022/04/01 10:29:34;;;;;;;1.92;1.83;;;18.40;40.40;;;;;;6216535;23;20156;-54
2022/04/01 10:32:23;;;;;;;1.90;1.80;;;18.50;40.50;;;;;;6216780;23;20198;-54
2022/04/01 10:34:50;;;;;;;1.70;1.60;;;18.40;40.30;;;;;;6190365;23;20196;-54
2022/04/01 10:37:17;;;;;;;1.80;1.70;;;18.50;40.50;;;;;;6216846;23;20216;-54
2022/04/01 10:39:49;;;;;;;1.80;1.70;;;18.40;40.40;;;;;;6189797;23;20237;-53
2022/04/01 10:42:18;;;;;;;1.98;1.88;;;18.40;40.40;;;;;;6189788;23;20251;-54
2022/04/01 10:44:52;;;;;;;1.80;1.70;;;18.50;40.30;;;;;;6189642;23;20187;-54
2022/04/01 10:47:21;;;;;;;1.63;1.52;;;18.40;40.30;;;;;;6190000;23;20586;-54
2022/04/01 10:52:34;;;;;;;1.90;1.80;;;18.50;40.30;;;;;;6189307;23;20222;-54
2022/04/01 10:55:16;;;;;;;1.70;1.60;;;18.50;40.30;;;;;;6189734;23;20187;-54
2022/04/01 10:57:46;;;;;;;1.80;1.70;;;18.50;40.30;;;;;;6216492;23;20148;-54
2022/04/01 11:00:16;;;;;;;1.60;1.50;;;18.50;40.40;;;;;;6216545;23;20226;-54
2022/04/01 11:02:44;;;;;;;1.77;1.67;;;18.50;40.30;;;;;;6216293;23;20225;-54
2022/04/01 11:05:25;;;;;;;1.77;1.63;;;18.50;40.30;;;;;;6189406;23;20200;-54
2022/04/01 11:08:16;;;;;;;1.60;1.50;;;18.50;40.30;;;;;;6189512;23;20179;-54
2022/04/01 11:11:04;;;;;;;1.60;1.50;;;18.40;40.30;;;;;;6189377;23;20198;-54
2022/04/01 11:13:33;;;;;;;1.60;1.50;;;18.40;40.20;;;;;;6189311;23;20167;-54
2022/04/01 11:16:16;;;;;;;1.50;1.40;;;18.40;40.30;;;;;;6215987;23;20187;-53
2022/04/01 11:19:11;;;;;;;1.60;1.50;;;18.40;40.30;;;;;;6189933;23;20195;-54
2022/04/01 11:21:39;;;;;;;1.60;1.50;;;18.40;40.40;;;;;;6189717;23;20194;-54
2022/04/01 11:24:22;;;;;;;1.52;1.45;;;18.40;40.20;;;;;;6189251;23;20196;-54
2022/04/01 11:26:50;;;;;;;1.83;1.73;;;18.40;40.10;;;;;;6189445;23;20164;-54
2022/04/01 11:29:21;;;;;;;1.70;1.60;;;18.40;40.20;;;;;;6189381;23;20527;-54
2022/04/01 11:31:48;;;;;;;1.67;1.58;;;18.40;40.30;;;;;;6216310;23;20140;-54
2022/04/01 11:34:16;;;;;;;1.75;1.65;;;18.40;40.30;;;;;;6215780;23;20215;-54
2022/04/01 11:36:47;;;;;;;1.70;1.60;;;18.40;40.30;;;;;;6190895;22;20182;-67
2022/04/01 11:39:17;;;;;;;1.60;1.50;;;18.40;40.00;;;;;;6247233;23;20162;-68
2022/04/01 11:41:46;;;;;;;1.98;1.80;;;18.50;40.10;;;;;;6219825;23;20210;-68
2022/04/01 11:44:14;;;;;;;1.75;1.63;;;18.50;40.10;;;;;;6222623;23;20198;-68
2022/04/01 11:46:49;;;;;;;1.70;1.60;;;18.50;40.00;;;;;;6189758;23;20206;-68
2022/04/01 11:49:17;;;;;;;1.75;1.65;;;18.50;40.00;;;;;;6190089;23;20194;-68
2022/04/01 11:54:46;;;;;;;1.80;1.70;;;18.50;40.00;;;;;;6156322;23;20163;-62
2022/04/01 11:57:14;;;;;;;1.65;1.55;;;18.50;39.80;;;;;;6179623;23;20173;-62
2022/04/01 11:59:41;;;;;;;1.73;1.63;;;18.50;39.80;;;;;;6129799;23;20200;-62
2022/04/01 12:02:13;;;;;;;1.77;1.67;;;18.50;39.80;;;;;;6179243;23;20219;-63
2022/04/01 12:04:40;;;;;;;1.70;1.60;;;18.60;39.90;;;;;;6129709;23;20255;-62
2022/04/01 12:09:59;;;;;;;1.80;1.70;;;18.50;39.90;;;;;;6187409;22;20267;-70
2022/04/01 12:12:27;;;;;;;1.73;1.63;;;18.60;39.80;;;;;;6246391;22;20158;-70
2022/04/01 12:14:56;;;;;;;1.60;1.50;;;18.50;39.70;;;;;;6219615;23;20201;-70
2022/04/01 12:17:25;;;;;;;1.70;1.60;;;18.60;39.80;;;;;;6245963;23;20162;-71
2022/04/01 12:20:08;;;;;;;1.75;1.65;;;18.60;39.60;;;;;;6219042;23;20195;-71
2022/04/01 12:22:40;;;;;;;2.55;1.70;;;18.60;39.80;;;;;;6219260;23;20212;-72
2022/04/01 12:25:08;;;;;;;1.80;1.70;;;18.60;39.80;;;;;;6219283;23;20162;-71
2022/04/01 12:27:50;;;;;;;1.77;1.67;;;18.60;39.80;;;;;;6219513;22;20203;-68
2022/04/01 12:30:28;;;;;;;2.65;1.63;;;18.60;39.60;;;;;;6247349;23;20158;-67
2022/04/01 12:32:57;;;;;;;1.55;1.45;;;18.60;39.60;;;;;;6220752;23;20673;-68
2022/04/01 12:35:24;;;;;;;1.70;1.60;;;18.60;39.70;;;;;;6220648;23;20166;-68
2022/04/01 12:38:06;;;;;;;1.92;1.83;;;18.60;39.70;;;;;;6204569;23;20286;-70
2022/04/01 12:40:51;;;;;;;1.60;1.50;;;18.60;39.50;;;;;;6216838;23;20183;-69
2022/04/01 12:43:32;;;;;;;1.92;1.83;;;18.60;39.50;;;;;;6190793;23;20225;-69
2022/04/01 12:46:00;;;;;;;1.95;1.85;;;18.60;39.30;;;;;;6192636;23;20662;-69
2022/04/01 12:48:29;;;;;;;1.80;1.70;;;18.60;39.40;;;;;;6190149;23;20249;-69
2022/04/01 12:50:58;;;;;;;1.83;1.73;;;18.60;39.20;;;;;;6216220;23;20155;-69
2022/04/01 12:53:25;;;;;;;1.80;1.70;;;18.60;39.20;;;;;;6189887;23;20206;-69
2022/04/01 12:55:52;;;;;;;1.80;1.70;;;18.60;39.50;;;;;;6190103;23;20646;-69
2022/04/01 12:58:22;;;;;;;1.80;1.70;;;18.60;39.00;;;;;;6189949;23;20215;-69
2022/04/01 13:00:49;;;;;;;1.98;1.88;;;18.60;39.00;;;;;;6189902;23;20211;-69
2022/04/01 13:03:17;;;;;;;1.88;1.77;;;18.60;39.30;;;;;;6190021;23;20175;-69
2022/04/01 13:05:45;;;;;;;2.38;1.90;;;18.60;39.60;;;;;;6189844;23;20270;-68
2022/04/01 13:08:13;;;;;;;2.20;2.00;;;18.60;39.30;;;;;;6189899;23;20238;-70
2022/04/01 13:10:40;;;;;;;1.75;1.65;;;18.50;39.40;;;;;;6189575;23;20176;-69
2022/04/01 13:13:16;;;;;;;2.03;1.92;;;18.50;39.40;;;;;;6189694;23;20250;-69
2022/04/01 13:15:51;;;;;;;2.10;2.00;;;18.50;39.40;;;;;;6189606;23;20251;-69
2022/04/01 13:18:25;;;;;;;1.88;1.77;;;18.50;39.20;;;;;;6218665;23;20183;-69
2022/04/01 13:20:53;;;;;;;2.20;2.10;;;18.50;39.20;;;;;;6193074;23;20190;-69
2022/04/01 13:23:22;;;;;;;2.30;2.10;;;18.50;39.30;;;;;;6191847;23;20209;-69
2022/04/01 13:25:49;;;;;;;2.20;2.05;;;18.50;39.40;;;;;;6192167;23;20176;-68
2022/04/01 13:28:16;;;;;;;2.22;2.13;;;18.50;39.30;;;;;;6191573;23;20213;-69
2022/04/01 13:30:44;;;;;;;1.80;1.70;;;18.50;39.30;;;;;;6192066;23;20171;-68
2022/04/01 13:33:11;;;;;;;2.20;2.00;;;18.50;39.30;;;;;;6192272;23;20175;-69